createdAt,value
2022-08-28T00:01:07.104Z,24.83
2022-08-28T00:03:37.630Z,24.80
2022-08-28T00:06:06.703Z,24.80
2022-08-28T00:08:34.641Z,24.81
2022-08-28T00:11:02.682Z,24.80
2022-08-28T00:13:30.591Z,24.78
2022-08-28T00:16:01.059Z,24.77
2022-08-28T00:18:29.243Z,24.76
2022-08-28T00:20:58.645Z,24.78
2022-08-28T00:23:42.585Z,24.77
2022-08-28T00:26:11.409Z,24.74
2022-08-28T00:28:38.354Z,24.72
2022-08-28T00:31:07.020Z,24.72
2022-08-28T00:33:35.625Z,24.73
2022-08-28T00:36:05.183Z,24.72
2022-08-28T00:38:33.281Z,24.70
2022-08-28T00:41:03.731Z,24.69
2022-08-28T00:43:37.153Z,24.68
2022-08-28T00:46:06.110Z,24.67
2022-08-28T00:48:34.215Z,24.66
2022-08-28T00:51:19.601Z,24.63
2022-08-28T00:53:48.964Z,24.62
2022-08-28T00:56:17.073Z,24.62
2022-08-28T00:58:45.473Z,24.61
2022-08-28T01:01:13.751Z,24.61
2022-08-28T01:03:41.721Z,24.58
2022-08-28T01:06:09.687Z,24.58
2022-08-28T01:08:37.969Z,24.57
2022-08-28T01:11:07.507Z,24.56
2022-08-28T01:13:35.691Z,24.55
2022-08-28T01:16:04.125Z,24.57
2022-08-28T01:18:32.361Z,24.57
2022-08-28T01:21:02.826Z,24.55
2022-08-28T01:23:53.382Z,24.55
2022-08-28T01:26:21.436Z,24.54
2022-08-28T01:28:49.386Z,24.53
2022-08-28T01:31:17.567Z,24.52
2022-08-28T01:33:45.729Z,24.52
2022-08-28T01:36:14.159Z,24.52
2022-08-28T01:38:42.676Z,24.51
2022-08-28T01:41:12.218Z,24.50
2022-08-28T01:43:40.237Z,24.50
2022-08-28T01:46:09.933Z,24.48
2022-08-28T01:48:39.638Z,24.47
2022-08-28T01:51:07.708Z,24.46
2022-08-28T01:53:35.682Z,24.45
2022-08-28T01:56:04.877Z,24.45
2022-08-28T01:58:38.108Z,24.47
2022-08-28T02:01:09.821Z,24.45
2022-08-28T02:03:37.828Z,24.43
2022-08-28T02:06:05.985Z,24.44
2022-08-28T02:08:33.917Z,24.41
2022-08-28T02:11:02.129Z,24.38
2022-08-28T02:13:30.061Z,24.40
2022-08-28T02:15:59.732Z,24.37
2022-08-28T02:18:27.768Z,24.39
2022-08-28T02:20:55.677Z,24.37
2022-08-28T02:23:23.657Z,24.38
2022-08-28T02:25:51.587Z,24.35
2022-08-28T02:28:19.502Z,24.35
2022-08-28T02:30:47.493Z,24.35
2022-08-28T02:33:17.278Z,24.33
2022-08-28T02:35:45.191Z,24.33
2022-08-28T02:38:13.713Z,24.34
2022-08-28T02:40:42.338Z,24.30
2022-08-28T02:43:10.287Z,24.30
2022-08-28T02:45:38.231Z,24.30
2022-08-28T02:48:11.963Z,24.28
2022-08-28T02:50:46.273Z,24.30
2022-08-28T02:53:14.229Z,24.26
2022-08-28T02:55:42.132Z,24.29
2022-08-28T02:58:10.251Z,24.27
2022-08-28T03:00:38.170Z,24.27
2022-08-28T03:03:06.448Z,24.26
2022-08-28T03:05:34.390Z,24.25
2022-08-28T03:08:04.047Z,24.23
2022-08-28T03:10:32.016Z,24.22
2022-08-28T03:12:59.995Z,24.23
2022-08-28T03:15:27.922Z,24.23
2022-08-28T03:17:56.114Z,24.22
2022-08-28T03:20:24.096Z,24.21
2022-08-28T03:23:09.389Z,24.19
2022-08-28T03:25:38.715Z,24.18
2022-08-28T03:28:06.740Z,24.19
2022-08-28T03:30:34.823Z,24.19
2022-08-28T03:33:03.109Z,24.21
2022-08-28T03:35:31.040Z,24.20
2022-08-28T03:37:58.960Z,24.19
2022-08-28T03:40:27.203Z,24.17
2022-08-28T03:42:56.554Z,24.16
2022-08-28T03:45:24.556Z,24.16
2022-08-28T03:47:53.674Z,24.15
2022-08-28T03:50:21.782Z,24.16
2022-08-28T03:52:49.749Z,24.16
2022-08-28T03:55:18.899Z,24.13
2022-08-28T03:57:47.020Z,24.11
2022-08-28T04:00:17.121Z,24.10
2022-08-28T04:02:46.255Z,24.12
2022-08-28T04:05:14.439Z,24.12
2022-08-28T04:07:42.487Z,24.10
2022-08-28T04:10:12.200Z,24.06
2022-08-28T04:12:40.242Z,24.08
2022-08-28T04:15:09.501Z,24.06
2022-08-28T04:17:39.958Z,24.05
2022-08-28T04:20:08.829Z,24.07
2022-08-28T04:22:37.223Z,24.08
2022-08-28T04:25:05.688Z,24.07
2022-08-28T04:27:33.678Z,24.06
2022-08-28T04:30:01.715Z,24.04
2022-08-28T04:32:29.633Z,24.03
2022-08-28T04:34:59.038Z,24.02
2022-08-28T04:37:27.975Z,24.02
2022-08-28T04:39:56.080Z,24.02
2022-08-28T04:42:24.052Z,24.01
2022-08-28T04:44:52.102Z,24.04
2022-08-28T04:47:23.706Z,24.00
2022-08-28T04:49:51.777Z,24.01
2022-08-28T04:52:21.247Z,24.02
2022-08-28T04:54:49.646Z,24.01
2022-08-28T04:57:17.551Z,24.03
2022-08-28T04:59:45.812Z,24.03
2022-08-28T05:02:13.904Z,24.04
2022-08-28T05:04:41.935Z,24.03
2022-08-28T05:07:09.838Z,24.07
2022-08-28T05:09:39.443Z,24.08
2022-08-28T05:12:07.546Z,24.08
2022-08-28T05:14:35.453Z,24.09
2022-08-28T05:17:03.392Z,24.10
2022-08-28T05:19:31.406Z,24.10
2022-08-28T05:21:59.303Z,24.11
2022-08-28T05:24:27.214Z,24.10
2022-08-28T05:26:57.543Z,24.10
2022-08-28T05:29:25.670Z,24.11
2022-08-28T05:31:53.630Z,24.11
2022-08-28T05:34:21.896Z,24.11
2022-08-28T05:36:49.991Z,24.12
2022-08-28T05:39:17.916Z,24.14
2022-08-28T05:41:46.141Z,24.15
2022-08-28T05:44:16.468Z,24.15
2022-08-28T05:46:47.770Z,24.14
2022-08-28T05:49:15.921Z,24.17
2022-08-28T05:51:44.001Z,24.16
2022-08-28T05:54:12.006Z,24.18
2022-08-28T05:56:40.693Z,24.23
2022-08-28T05:59:08.826Z,24.26
2022-08-28T06:01:40.490Z,24.28
2022-08-28T06:04:10.697Z,24.28
2022-08-28T06:06:39.457Z,24.31
2022-08-28T06:09:08.470Z,24.31
2022-08-28T06:11:38.759Z,24.30
2022-08-28T06:14:11.972Z,24.31
2022-08-28T06:16:45.585Z,24.30
2022-08-28T06:19:13.776Z,24.30
2022-08-28T06:21:41.826Z,24.33
2022-08-28T06:24:09.937Z,24.33
2022-08-28T06:26:37.894Z,24.33
2022-08-28T06:29:08.848Z,24.36
2022-08-28T06:31:36.896Z,24.37
2022-08-28T06:34:06.795Z,24.41
2022-08-28T06:36:35.523Z,24.42
2022-08-28T06:39:03.699Z,24.43
2022-08-28T06:41:32.326Z,24.43
2022-08-28T06:44:00.338Z,24.45
2022-08-28T06:46:30.391Z,24.46
2022-08-28T06:48:58.425Z,24.48
2022-08-28T06:51:27.710Z,24.47
2022-08-28T06:53:55.776Z,24.51
2022-08-28T06:56:26.157Z,24.50
2022-08-28T06:58:55.724Z,24.52
2022-08-28T07:01:25.440Z,24.57
2022-08-28T07:03:54.415Z,24.63
2022-08-28T07:06:22.823Z,24.65
2022-08-28T07:08:52.163Z,24.66
2022-08-28T07:11:21.970Z,24.69
2022-08-28T07:13:54.214Z,24.65
2022-08-28T07:16:23.651Z,24.64
2022-08-28T07:18:51.640Z,24.64
2022-08-28T07:21:20.539Z,24.65
2022-08-28T07:23:48.643Z,24.65
2022-08-28T07:26:19.162Z,24.66
2022-08-28T07:28:47.379Z,24.71
2022-08-28T07:31:16.409Z,24.73
2022-08-28T07:33:44.474Z,24.76
2022-08-28T07:36:28.850Z,24.77
2022-08-28T07:38:59.129Z,24.74
2022-08-28T07:41:29.181Z,24.75
2022-08-28T07:44:14.653Z,24.77
2022-08-28T07:46:42.614Z,24.78
2022-08-28T07:49:10.721Z,24.80
2022-08-28T07:51:38.660Z,24.80
2022-08-28T07:54:06.715Z,24.80
2022-08-28T07:56:40.929Z,24.77
2022-08-28T07:59:09.488Z,24.79
2022-08-28T08:01:39.069Z,24.80
2022-08-28T08:04:07.539Z,24.83
2022-08-28T08:06:35.658Z,24.90
2022-08-28T08:09:03.897Z,24.91
2022-08-28T08:11:32.428Z,24.93
2022-08-28T08:14:05.348Z,24.92
2022-08-28T08:16:34.693Z,24.91
2022-08-28T08:19:02.644Z,24.92
2022-08-28T08:21:30.872Z,24.93
2022-08-28T08:23:59.000Z,24.92
2022-08-28T08:26:28.139Z,24.89
2022-08-28T08:28:56.323Z,24.86
2022-08-28T08:31:26.644Z,24.84
2022-08-28T08:33:56.178Z,24.84
2022-08-28T08:36:24.701Z,24.83
2022-08-28T08:38:59.067Z,24.82
2022-08-28T08:41:30.333Z,24.81
2022-08-28T08:44:00.864Z,24.82
2022-08-28T08:46:34.286Z,24.82
2022-08-28T08:49:03.819Z,24.82
2022-08-28T08:51:40.493Z,24.82
2022-08-28T08:54:11.291Z,24.81
2022-08-28T08:56:40.346Z,24.83
2022-08-28T08:59:09.074Z,24.81
2022-08-28T09:01:41.123Z,24.82
2022-08-28T09:04:15.914Z,24.84
2022-08-28T09:06:48.609Z,24.86
2022-08-28T09:09:19.313Z,24.89
2022-08-28T09:11:51.081Z,24.89
2022-08-28T09:14:29.561Z,24.86
2022-08-28T09:16:59.092Z,24.89
2022-08-28T09:19:27.024Z,24.88
2022-08-28T09:21:54.995Z,24.87
2022-08-28T09:24:24.612Z,24.86
2022-08-28T09:26:56.354Z,24.85
2022-08-28T09:29:27.959Z,24.82
2022-08-28T09:31:56.251Z,24.79
2022-08-28T09:34:33.377Z,24.78
2022-08-28T09:37:03.561Z,24.65
2022-08-28T09:39:32.048Z,24.76
2022-08-28T09:42:21.231Z,24.79
2022-08-28T09:44:57.415Z,24.82
2022-08-28T09:47:46.750Z,24.85
2022-08-28T09:50:34.909Z,24.89
2022-08-28T09:53:18.914Z,24.92
2022-08-28T09:55:52.908Z,24.95
2022-08-28T09:58:21.173Z,24.97
2022-08-28T10:00:52.363Z,24.97
2022-08-28T10:03:23.064Z,24.95
2022-08-28T10:05:58.344Z,25.01
2022-08-28T10:08:32.478Z,25.06
2022-08-28T10:11:01.918Z,25.06
2022-08-28T10:13:31.423Z,25.03
2022-08-28T10:16:23.024Z,25.06
2022-08-28T10:18:54.207Z,25.12
2022-08-28T10:21:26.025Z,25.09
2022-08-28T10:24:12.618Z,25.04
2022-08-28T10:26:43.996Z,25.08
2022-08-28T10:29:22.537Z,25.11
2022-08-28T10:31:52.661Z,25.09
2022-08-28T10:34:34.335Z,25.08
2022-08-28T10:37:08.351Z,25.12
2022-08-28T10:39:43.341Z,25.15
2022-08-28T10:42:11.326Z,25.15
2022-08-28T10:44:41.783Z,25.19
2022-08-28T10:47:09.849Z,25.19
2022-08-28T10:49:39.024Z,25.17
2022-08-28T10:52:10.022Z,25.16
2022-08-28T10:54:41.102Z,25.25
2022-08-28T10:57:36.144Z,25.29
2022-08-28T11:00:09.566Z,25.29
2022-08-28T11:02:37.699Z,25.31
2022-08-28T11:05:06.440Z,25.30
2022-08-28T11:07:37.160Z,25.34
2022-08-28T11:10:21.131Z,25.41
2022-08-28T11:12:49.183Z,25.41
2022-08-28T11:15:41.729Z,25.40
2022-08-28T11:18:35.572Z,25.43
2022-08-28T11:21:06.496Z,25.47
2022-08-28T11:23:38.429Z,25.47
2022-08-28T11:26:08.191Z,25.45
2022-08-28T11:28:43.899Z,25.41
2022-08-28T11:31:38.748Z,25.38
2022-08-28T11:34:06.734Z,25.42
2022-08-28T11:36:56.926Z,25.45
2022-08-28T11:39:27.752Z,25.46
2022-08-28T11:42:32.125Z,25.42
2022-08-28T11:45:00.783Z,25.40
2022-08-28T11:47:57.750Z,25.36
2022-08-28T11:50:31.136Z,25.35
2022-08-28T11:53:28.231Z,25.33
2022-08-28T11:56:39.395Z,25.31
2022-08-28T11:59:19.388Z,25.30
2022-08-28T12:01:49.804Z,25.31
2022-08-28T12:04:18.412Z,25.32
2022-08-28T12:06:54.448Z,25.34
2022-08-28T12:09:43.270Z,25.34
2022-08-28T12:12:53.385Z,25.31
2022-08-28T12:15:41.603Z,25.32
2022-08-28T12:18:16.021Z,25.35
2022-08-28T12:21:01.164Z,25.40
2022-08-28T12:23:40.957Z,25.43
2022-08-28T12:26:11.275Z,25.47
2022-08-28T12:28:46.469Z,25.49
2022-08-28T12:31:59.755Z,25.47
2022-08-28T12:34:33.416Z,25.53
2022-08-28T12:37:02.110Z,25.53
2022-08-28T12:39:30.567Z,25.49
2022-08-28T12:41:58.881Z,25.49
2022-08-28T12:44:29.784Z,25.49
2022-08-28T12:46:57.738Z,25.48
2022-08-28T12:49:31.459Z,25.48
2022-08-28T12:52:10.530Z,25.50
2022-08-28T12:54:38.466Z,25.56
2022-08-28T12:57:07.900Z,25.57
2022-08-28T12:59:38.522Z,25.62
2022-08-28T13:02:08.270Z,25.64
2022-08-28T13:04:37.270Z,25.63
2022-08-28T13:07:08.763Z,25.63
2022-08-28T13:09:36.740Z,25.67
2022-08-28T13:12:07.230Z,25.71
2022-08-28T13:14:41.940Z,25.76
2022-08-28T13:17:09.873Z,25.75
2022-08-28T13:19:38.039Z,25.73
2022-08-28T13:22:08.468Z,25.76
2022-08-28T13:24:47.050Z,25.88
2022-08-28T13:27:20.452Z,25.92
2022-08-28T13:30:06.118Z,25.96
2022-08-28T13:32:34.898Z,25.93
2022-08-28T13:35:38.054Z,25.91
2022-08-28T13:38:08.259Z,25.85
2022-08-28T13:40:58.520Z,25.82
2022-08-28T13:43:29.345Z,25.83
2022-08-28T13:45:58.892Z,25.82
2022-08-28T13:48:27.522Z,25.78
2022-08-28T13:50:58.241Z,25.76
2022-08-28T13:53:26.209Z,25.72
2022-08-28T13:55:54.163Z,25.71
2022-08-28T13:58:22.116Z,25.71
2022-08-28T14:00:50.609Z,25.76
2022-08-28T14:03:38.275Z,25.74
2022-08-28T14:06:08.214Z,25.72
2022-08-28T14:08:36.179Z,25.64
2022-08-28T14:11:04.387Z,25.56
2022-08-28T14:13:32.442Z,25.50
2022-08-28T14:16:00.386Z,25.46
2022-08-28T14:18:29.746Z,25.45
2022-08-28T14:20:57.803Z,25.43
2022-08-28T14:23:25.723Z,25.43
2022-08-28T14:25:53.651Z,25.42
2022-08-28T14:28:21.596Z,25.41
2022-08-28T14:30:50.897Z,25.42
2022-08-28T14:33:20.762Z,25.45
2022-08-28T14:35:50.592Z,25.51
2022-08-28T14:38:18.557Z,25.57
2022-08-28T14:40:46.482Z,25.69
2022-08-28T14:43:14.758Z,25.89
2022-08-28T14:45:43.825Z,26.71
2022-08-28T14:48:11.838Z,26.79
2022-08-28T14:50:41.138Z,26.48
2022-08-28T14:53:10.813Z,26.16
2022-08-28T14:55:42.415Z,25.94
2022-08-28T14:58:10.517Z,25.83
2022-08-28T15:00:42.255Z,25.80
2022-08-28T15:03:10.561Z,25.71
2022-08-28T15:05:38.635Z,25.59
2022-08-28T15:08:07.987Z,25.52
2022-08-28T15:10:38.336Z,25.47
2022-08-28T15:13:07.672Z,25.46
2022-08-28T15:15:36.712Z,25.45
2022-08-28T15:18:04.827Z,25.65
2022-08-28T15:20:33.400Z,25.74
2022-08-28T15:23:01.834Z,25.65
2022-08-28T15:25:29.768Z,25.60
2022-08-28T15:27:59.048Z,25.36
2022-08-28T15:30:26.990Z,25.60
2022-08-28T15:32:54.965Z,25.69
2022-08-28T15:35:22.906Z,25.69
2022-08-28T15:37:51.439Z,25.66
2022-08-28T15:40:36.945Z,25.62
2022-08-28T15:43:06.326Z,25.63
2022-08-28T15:45:37.395Z,25.71
2022-08-28T15:48:05.658Z,25.75
2022-08-28T15:50:33.632Z,25.77
2022-08-28T15:53:01.741Z,25.77
2022-08-28T15:55:30.259Z,25.78
2022-08-28T15:57:58.234Z,25.74
2022-08-28T16:00:27.579Z,25.71
2022-08-28T16:02:59.863Z,25.64
2022-08-28T16:05:31.285Z,25.59
2022-08-28T16:07:59.486Z,25.55
2022-08-28T16:10:27.408Z,25.49
2022-08-28T16:12:57.680Z,25.43
2022-08-28T16:15:27.772Z,25.39
2022-08-28T16:17:55.776Z,25.32
2022-08-28T16:20:24.458Z,25.27
2022-08-28T16:22:53.054Z,25.23
2022-08-28T16:25:20.964Z,25.20
2022-08-28T16:27:48.913Z,25.18
2022-08-28T16:30:16.908Z,25.16
2022-08-28T16:32:46.933Z,25.13
2022-08-28T16:35:15.980Z,25.08
2022-08-28T16:37:44.154Z,25.06
2022-08-28T16:40:12.757Z,25.00
2022-08-28T16:42:51.663Z,25.02
2022-08-28T16:45:20.399Z,24.97
2022-08-28T16:47:50.162Z,24.94
2022-08-28T16:50:18.321Z,24.92
2022-08-28T16:52:46.419Z,24.89
2022-08-28T16:55:14.420Z,24.87
2022-08-28T16:57:42.567Z,24.85
2022-08-28T17:00:12.577Z,24.83
2022-08-28T17:02:41.712Z,24.79
2022-08-28T17:05:11.718Z,24.76
2022-08-28T17:07:40.219Z,24.73
2022-08-28T17:10:09.328Z,24.71
2022-08-28T17:12:37.283Z,24.68
2022-08-28T17:15:06.103Z,24.67
2022-08-28T17:17:34.159Z,24.63
2022-08-28T17:20:02.495Z,24.62
2022-08-28T17:22:31.971Z,24.59
2022-08-28T17:25:01.504Z,24.57
2022-08-28T17:27:29.966Z,24.56
2022-08-28T17:29:58.226Z,24.54
2022-08-28T17:32:26.178Z,24.53
2022-08-28T17:34:54.164Z,24.51
2022-08-28T17:37:23.741Z,24.50
2022-08-28T17:39:53.618Z,24.49
2022-08-28T17:42:21.586Z,24.47
2022-08-28T17:44:49.494Z,24.45
2022-08-28T17:47:17.547Z,24.45
2022-08-28T17:49:49.670Z,24.43
2022-08-28T17:52:17.611Z,24.42
2022-08-28T17:54:45.570Z,24.40
2022-08-28T17:57:16.633Z,24.38
2022-08-28T17:59:44.642Z,24.37
2022-08-28T18:02:16.693Z,24.36
2022-08-28T18:04:44.674Z,24.34
2022-08-28T18:07:13.086Z,24.32
2022-08-28T18:09:41.021Z,24.31
2022-08-28T18:12:12.658Z,24.28
2022-08-28T18:14:42.200Z,24.25
2022-08-28T18:17:10.841Z,24.25
2022-08-28T18:19:40.123Z,24.24
2022-08-28T18:22:09.027Z,24.23
2022-08-28T18:24:36.975Z,24.21
2022-08-28T18:27:05.327Z,24.20
2022-08-28T18:29:33.260Z,24.19
2022-08-28T18:32:03.003Z,24.17
2022-08-28T18:34:31.677Z,24.15
2022-08-28T18:36:59.661Z,24.14
2022-08-28T18:39:29.363Z,24.13
2022-08-28T18:41:58.096Z,24.15
2022-08-28T18:44:26.066Z,24.13
2022-08-28T18:46:54.139Z,24.11
2022-08-28T18:49:23.479Z,24.12
2022-08-28T18:51:51.418Z,24.10
2022-08-28T18:54:20.240Z,24.10
2022-08-28T18:56:48.735Z,24.08
2022-08-28T18:59:18.404Z,24.07
2022-08-28T19:01:46.414Z,24.06
2022-08-28T19:04:14.512Z,24.04
2022-08-28T19:06:44.399Z,24.03
2022-08-28T19:09:20.469Z,24.02
2022-08-28T19:11:48.949Z,24.02
2022-08-28T19:14:16.915Z,24.00
2022-08-28T19:16:44.860Z,23.99
2022-08-28T19:19:12.839Z,24.01
2022-08-28T19:21:40.780Z,24.01
2022-08-28T19:24:10.125Z,24.00
2022-08-28T19:26:38.685Z,23.99
2022-08-28T19:29:07.338Z,23.99
2022-08-28T19:31:37.721Z,24.00
2022-08-28T19:34:06.047Z,23.99
2022-08-28T19:36:34.134Z,23.98
2022-08-28T19:39:02.095Z,23.98
2022-08-28T19:41:32.440Z,23.96
2022-08-28T19:44:00.634Z,23.95
2022-08-28T19:46:28.567Z,23.94
2022-08-28T19:48:56.706Z,23.91
2022-08-28T19:51:24.793Z,23.95
2022-08-28T19:53:57.771Z,23.96
2022-08-28T19:56:27.836Z,23.94
2022-08-28T19:58:59.102Z,23.92
2022-08-28T20:01:29.557Z,23.90
2022-08-28T20:03:58.048Z,23.90
2022-08-28T20:06:25.953Z,23.85
2022-08-28T20:08:53.867Z,23.82
2022-08-28T20:11:25.036Z,23.79
2022-08-28T20:13:53.176Z,23.77
2022-08-28T20:16:22.561Z,23.81
2022-08-28T20:18:51.146Z,23.86
2022-08-28T20:21:25.854Z,23.85
2022-08-28T20:24:05.863Z,23.84
2022-08-28T20:26:33.753Z,23.86
2022-08-28T20:29:01.663Z,23.85
2022-08-28T20:31:30.969Z,23.86
2022-08-28T20:33:59.039Z,23.84
2022-08-28T20:36:27.313Z,23.82
2022-08-28T20:38:55.534Z,23.80
2022-08-28T20:41:23.811Z,23.82
2022-08-28T20:43:51.773Z,23.83
2022-08-28T20:46:20.121Z,23.82
2022-08-28T20:48:49.580Z,23.83
2022-08-28T20:51:17.524Z,23.85
2022-08-28T20:53:45.586Z,23.85
2022-08-28T20:56:13.532Z,23.86
2022-08-28T20:58:41.544Z,23.84
2022-08-28T21:01:09.559Z,23.83
2022-08-28T21:03:37.477Z,23.81
2022-08-28T21:06:07.185Z,23.78
2022-08-28T21:08:35.161Z,23.79
2022-08-28T21:11:03.472Z,23.80
2022-08-28T21:13:32.362Z,23.78
2022-08-28T21:16:00.321Z,23.78
2022-08-28T21:18:31.343Z,23.77
2022-08-28T21:20:59.226Z,23.78
2022-08-28T21:23:28.615Z,23.77
2022-08-28T21:25:56.595Z,23.78
2022-08-28T21:28:24.542Z,23.76
2022-08-28T21:30:53.989Z,23.73
2022-08-28T21:33:22.010Z,23.70
2022-08-28T21:35:50.164Z,23.74
2022-08-28T21:38:18.179Z,23.74
2022-08-28T21:40:47.543Z,23.73
2022-08-28T21:43:15.540Z,23.75
2022-08-28T21:45:43.448Z,23.75
2022-08-28T21:48:11.458Z,23.76
2022-08-28T21:50:39.358Z,23.70
2022-08-28T21:53:07.863Z,23.67
2022-08-28T21:55:35.807Z,23.63
2022-08-28T21:58:05.141Z,23.61
2022-08-28T22:00:36.076Z,23.58
2022-08-28T22:03:04.354Z,23.59
2022-08-28T22:05:32.267Z,23.58
2022-08-28T22:08:00.226Z,23.57
2022-08-28T22:10:28.251Z,23.59
2022-08-28T22:12:56.536Z,23.61
2022-08-28T22:15:25.836Z,23.61
2022-08-28T22:17:53.771Z,23.60
2022-08-28T22:20:21.743Z,23.59
2022-08-28T22:23:06.950Z,23.57
2022-08-28T22:25:40.716Z,23.57
2022-08-28T22:28:09.189Z,23.57
2022-08-28T22:30:38.643Z,23.56
2022-08-28T22:33:07.980Z,23.56
2022-08-28T22:35:35.886Z,23.56
2022-08-28T22:38:03.820Z,23.55
2022-08-28T22:40:32.652Z,23.55
2022-08-28T22:43:00.685Z,23.57
2022-08-28T22:45:28.696Z,23.59
2022-08-28T22:47:58.008Z,23.58
2022-08-28T22:50:25.973Z,23.59
2022-08-28T22:52:53.950Z,23.57
2022-08-28T22:55:22.189Z,23.57
2022-08-28T22:57:50.188Z,23.57
2022-08-28T23:00:20.216Z,23.57
2022-08-28T23:02:48.216Z,23.57
2022-08-28T23:05:17.893Z,23.58
2022-08-28T23:07:45.860Z,23.58
2022-08-28T23:10:13.804Z,23.58
2022-08-28T23:12:41.920Z,23.57
2022-08-28T23:15:11.876Z,23.56
2022-08-28T23:17:39.818Z,23.55
2022-08-28T23:20:10.803Z,23.54
2022-08-28T23:22:40.277Z,23.48
2022-08-28T23:25:08.983Z,23.52
2022-08-28T23:27:37.047Z,23.53
2022-08-28T23:30:06.659Z,23.52
2022-08-28T23:32:34.617Z,23.51
2022-08-28T23:35:07.032Z,23.51
2022-08-28T23:37:35.700Z,23.49
2022-08-28T23:40:05.624Z,23.49
2022-08-28T23:42:34.058Z,23.49
2022-08-28T23:45:02.000Z,23.49
2022-08-28T23:47:33.127Z,23.46
2022-08-28T23:50:01.504Z,23.47
2022-08-28T23:52:30.591Z,23.45
2022-08-28T23:55:00.033Z,23.45
2022-08-28T23:57:29.612Z,23.44
2022-08-28T23:59:58.010Z,23.42
